sensor_id;sensor_type;location;lat;lon;timestamp;temperature;humidity
22623;DHT22;11478;51.094;7.030;2022-07-29T06:40:32;17.50;99.90
22623;DHT22;11478;51.094;7.030;2022-07-29T06:43:17;17.60;99.90
22623;DHT22;11478;51.094;7.030;2022-07-29T06:45:43;17.60;99.90
22623;DHT22;11478;51.094;7.030;2022-07-29T06:48:12;17.60;99.90
22623;DHT22;11478;51.094;7.030;2022-07-29T06:50:39;17.60;99.90
22623;DHT22;11478;51.094;7.030;2022-07-29T06:53:05;17.60;99.90
22623;DHT22;11478;51.094;7.030;2022-07-29T06:55:31;17.70;99.90
22623;DHT22;11478;51.094;7.030;2022-07-29T06:58:05;17.70;99.90
22623;DHT22;11478;51.094;7.030;2022-07-29T07:00:32;17.70;99.90
22623;DHT22;11478;51.094;7.030;2022-07-29T07:02:58;17.80;99.90
22623;DHT22;11478;51.094;7.030;2022-07-29T07:05:23;17.70;99.90
22623;DHT22;11478;51.094;7.030;2022-07-29T07:08:07;17.70;99.90
22623;DHT22;11478;51.094;7.030;2022-07-29T07:13:05;17.70;99.90
22623;DHT22;11478;51.094;7.030;2022-07-29T07:15:31;17.70;99.90
22623;DHT22;11478;51.094;7.030;2022-07-29T07:18:02;17.70;99.90
22623;DHT22;11478;51.094;7.030;2022-07-29T07:20:28;17.60;99.90
22623;DHT22;11478;51.094;7.030;2022-07-29T07:29:33;17.60;99.90
22623;DHT22;11478;51.094;7.030;2022-07-29T07:32:08;17.60;99.90
22623;DHT22;11478;51.094;7.030;2022-07-29T07:34:34;17.60;99.90
22623;DHT22;11478;51.094;7.030;2022-07-29T07:37:00;17.60;99.90
22623;DHT22;11478;51.094;7.030;2022-07-29T07:39:25;17.50;99.90
22623;DHT22;11478;51.094;7.030;2022-07-29T07:41:52;17.50;99.90
22623;DHT22;11478;51.094;7.030;2022-07-29T07:44:17;17.50;99.90
22623;DHT22;11478;51.094;7.030;2022-07-29T07:46:46;17.50;99.90
22623;DHT22;11478;51.094;7.030;2022-07-29T07:49:11;17.50;99.90
22623;DHT22;11478;51.094;7.030;2022-07-29T07:51:47;17.50;99.90
22623;DHT22;11478;51.094;7.030;2022-07-29T07:54:12;17.40;99.90
22623;DHT22;11478;51.094;7.030;2022-07-29T07:56:39;17.50;99.90
22623;DHT22;11478;51.094;7.030;2022-07-29T07:59:05;17.50;99.90
22623;DHT22;11478;51.094;7.030;2022-07-29T08:01:31;17.60;99.90
22623;DHT22;11478;51.094;7.030;2022-07-29T08:03:57;17.50;99.90
22623;DHT22;11478;51.094;7.030;2022-07-29T08:06:22;17.50;99.90
22623;DHT22;11478;51.094;7.030;2022-07-29T08:08:50;17.40;99.90
22623;DHT22;11478;51.094;7.030;2022-07-29T08:11:16;17.40;99.90
22623;DHT22;11478;51.094;7.030;2022-07-29T08:13:42;17.40;99.90
22623;DHT22;11478;51.094;7.030;2022-07-29T08:16:09;17.40;99.90
22623;DHT22;11478;51.094;7.030;2022-07-29T08:18:39;17.40;99.90
22623;DHT22;11478;51.094;7.030;2022-07-29T08:21:18;17.50;99.90
22623;DHT22;11478;51.094;7.030;2022-07-29T08:23:45;17.50;99.90
22623;DHT22;11478;51.094;7.030;2022-07-29T08:26:44;17.60;99.90
22623;DHT22;11478;51.094;7.030;2022-07-29T08:29:10;17.70;99.90
22623;DHT22;11478;51.094;7.030;2022-07-29T08:31:37;17.80;99.90
22623;DHT22;11478;51.094;7.030;2022-07-29T08:34:04;17.80;99.90
22623;DHT22;11478;51.094;7.030;2022-07-29T08:36:33;17.80;99.90
22623;DHT22;11478;51.094;7.030;2022-07-29T08:38:59;17.80;99.90
22623;DHT22;11478;51.094;7.030;2022-07-29T08:41:29;17.80;99.90
22623;DHT22;11478;51.094;7.030;2022-07-29T08:43:56;17.80;99.90
22623;DHT22;11478;51.094;7.030;2022-07-29T08:46:25;17.90;99.90
22623;DHT22;11478;51.094;7.030;2022-07-29T08:48:51;17.80;99.90
22623;DHT22;11478;51.094;7.030;2022-07-29T08:51:20;17.70;99.90
22623;DHT22;11478;51.094;7.030;2022-07-29T08:53:49;17.70;99.90
22623;DHT22;11478;51.094;7.030;2022-07-29T08:56:19;17.60;99.90
22623;DHT22;11478;51.094;7.030;2022-07-29T08:58:46;17.60;99.90
22623;DHT22;11478;51.094;7.030;2022-07-29T09:01:24;17.60;99.90
22623;DHT22;11478;51.094;7.030;2022-07-29T09:03:55;17.50;99.90
22623;DHT22;11478;51.094;7.030;2022-07-29T09:06:31;17.50;99.90
22623;DHT22;11478;51.094;7.030;2022-07-29T09:08:59;17.60;99.90
22623;DHT22;11478;51.094;7.030;2022-07-29T09:11:25;17.60;99.90
22623;DHT22;11478;51.094;7.030;2022-07-29T09:13:53;17.60;99.90
22623;DHT22;11478;51.094;7.030;2022-07-29T09:16:19;17.60;99.90
22623;DHT22;11478;51.094;7.030;2022-07-29T09:18:46;17.60;99.90
22623;DHT22;11478;51.094;7.030;2022-07-29T09:21:14;17.60;99.90
22623;DHT22;11478;51.094;7.030;2022-07-29T09:24:13;17.60;99.90
22623;DHT22;11478;51.094;7.030;2022-07-29T09:26:43;17.70;99.90
22623;DHT22;11478;51.094;7.030;2022-07-29T09:29:28;17.80;99.90
22623;DHT22;11478;51.094;7.030;2022-07-29T09:31:54;17.90;99.90
22623;DHT22;11478;51.094;7.030;2022-07-29T09:34:27;17.90;99.90
22623;DHT22;11478;51.094;7.030;2022-07-29T09:36:54;18.00;99.90
22623;DHT22;11478;51.094;7.030;2022-07-29T09:39:36;18.00;99.90
22623;DHT22;11478;51.094;7.030;2022-07-29T09:42:04;18.10;99.90
22623;DHT22;11478;51.094;7.030;2022-07-29T09:44:48;18.20;99.90
22623;DHT22;11478;51.094;7.030;2022-07-29T09:47:16;18.20;99.90
22623;DHT22;11478;51.094;7.030;2022-07-29T09:49:59;18.20;99.90
22623;DHT22;11478;51.094;7.030;2022-07-29T09:52:26;18.30;99.90
22623;DHT22;11478;51.094;7.030;2022-07-29T09:55:03;18.30;99.90
22623;DHT22;11478;51.094;7.030;2022-07-29T09:57:30;18.40;99.90
22623;DHT22;11478;51.094;7.030;2022-07-29T10:02:31;18.40;99.90
22623;DHT22;11478;51.094;7.030;2022-07-29T10:04:59;18.50;99.90
22623;DHT22;11478;51.094;7.030;2022-07-29T10:07:25;18.50;99.90
22623;DHT22;11478;51.094;7.030;2022-07-29T10:10:00;18.50;99.90
22623;DHT22;11478;51.094;7.030;2022-07-29T10:12:27;18.50;99.90
22623;DHT22;11478;51.094;7.030;2022-07-29T10:14:54;18.50;99.90
22623;DHT22;11478;51.094;7.030;2022-07-29T10:17:21;18.50;99.90
22623;DHT22;11478;51.094;7.030;2022-07-29T10:19:48;18.50;99.90
22623;DHT22;11478;51.094;7.030;2022-07-29T10:22:15;18.60;99.90
22623;DHT22;11478;51.094;7.030;2022-07-29T10:24:42;18.60;99.90
22623;DHT22;11478;51.094;7.030;2022-07-29T10:27:09;18.70;99.90
22623;DHT22;11478;51.094;7.030;2022-07-29T10:29:35;18.70;99.90
22623;DHT22;11478;51.094;7.030;2022-07-29T10:43:53;19.10;99.90
22623;DHT22;11478;51.094;7.030;2022-07-29T10:46:20;19.20;99.90
22623;DHT22;11478;51.094;7.030;2022-07-29T10:51:56;19.20;99.90
22623;DHT22;11478;51.094;7.030;2022-07-29T10:54:39;19.20;99.90
22623;DHT22;11478;51.094;7.030;2022-07-29T10:57:27;19.30;99.90
22623;DHT22;11478;51.094;7.030;2022-07-29T11:05:13;19.30;99.90
22623;DHT22;11478;51.094;7.030;2022-07-29T11:08:16;19.30;99.90
22623;DHT22;11478;51.094;7.030;2022-07-29T11:10:26;19.40;99.90
22623;DHT22;11478;51.094;7.030;2022-07-29T11:12:52;19.50;99.90
22623;DHT22;11478;51.094;7.030;2022-07-29T11:15:24;19.60;99.90
22623;DHT22;11478;51.094;7.030;2022-07-29T11:20:43;19.70;99.90
22623;DHT22;11478;51.094;7.030;2022-07-29T11:23:28;19.80;99.90
22623;DHT22;11478;51.094;7.030;2022-07-29T11:26:13;19.90;99.90
22623;DHT22;11478;51.094;7.030;2022-07-29T11:31:31;20.10;99.90
22623;DHT22;11478;51.094;7.030;2022-07-29T11:37:16;20.30;99.90
22623;DHT22;11478;51.094;7.030;2022-07-29T11:47:29;20.70;99.90
22623;DHT22;11478;51.094;7.030;2022-07-29T11:49:56;20.80;99.90
22623;DHT22;11478;51.094;7.030;2022-07-29T11:52:54;20.90;99.90
22623;DHT22;11478;51.094;7.030;2022-07-29T11:55:22;21.00;99.90
22623;DHT22;11478;51.094;7.030;2022-07-29T11:58:07;21.10;99.90
22623;DHT22;11478;51.094;7.030;2022-07-29T12:03:27;21.20;99.90
22623;DHT22;11478;51.094;7.030;2022-07-29T12:05:55;21.20;99.90
22623;DHT22;11478;51.094;7.030;2022-07-29T12:10:57;21.30;99.90
22623;DHT22;11478;51.094;7.030;2022-07-29T12:13:27;21.40;99.90
22623;DHT22;11478;51.094;7.030;2022-07-29T12:16:11;21.50;99.90
22623;DHT22;11478;51.094;7.030;2022-07-29T12:18:37;21.60;99.90
22623;DHT22;11478;51.094;7.030;2022-07-29T12:21:07;21.60;99.90
22623;DHT22;11478;51.094;7.030;2022-07-29T12:23:35;21.70;99.90
22623;DHT22;11478;51.094;7.030;2022-07-29T12:57:20;22.40;99.90
22623;DHT22;11478;51.094;7.030;2022-07-29T13:00:11;22.40;99.90
22623;DHT22;11478;51.094;7.030;2022-07-29T13:02:39;22.50;99.90
22623;DHT22;11478;51.094;7.030;2022-07-29T13:07:48;22.70;99.90
22623;DHT22;11478;51.094;7.030;2022-07-29T13:10:21;22.80;99.90
22623;DHT22;11478;51.094;7.030;2022-07-29T13:28:59;23.00;99.90
22623;DHT22;11478;51.094;7.030;2022-07-29T13:39:10;23.30;99.90
22623;DHT22;11478;51.094;7.030;2022-07-29T13:41:57;23.30;99.90
22623;DHT22;11478;51.094;7.030;2022-07-29T13:47:07;23.30;99.90
22623;DHT22;11478;51.094;7.030;2022-07-29T13:49:34;23.40;99.90
22623;DHT22;11478;51.094;7.030;2022-07-29T13:52:09;23.50;99.90
22623;DHT22;11478;51.094;7.030;2022-07-29T13:54:42;23.60;99.90
22623;DHT22;11478;51.094;7.030;2022-07-29T13:57:09;23.60;99.90
22623;DHT22;11478;51.094;7.030;2022-07-29T13:59:46;23.60;99.90
22623;DHT22;11478;51.094;7.030;2022-07-29T14:02:13;23.70;99.90
22623;DHT22;11478;51.094;7.030;2022-07-29T14:04:39;23.70;99.90
22623;DHT22;11478;51.094;7.030;2022-07-29T14:07:07;23.80;99.90
22623;DHT22;11478;51.094;7.030;2022-07-29T14:09:33;23.90;99.90
22623;DHT22;11478;51.094;7.030;2022-07-29T14:20:23;23.90;99.90
22623;DHT22;11478;51.094;7.030;2022-07-29T14:22:56;23.90;99.90
22623;DHT22;11478;51.094;7.030;2022-07-29T14:25:27;23.90;99.90
22623;DHT22;11478;51.094;7.030;2022-07-29T14:27:56;23.90;99.90
22623;DHT22;11478;51.094;7.030;2022-07-29T14:35:34;23.90;99.90
22623;DHT22;11478;51.094;7.030;2022-07-29T14:43:13;23.90;99.90
22623;DHT22;11478;51.094;7.030;2022-07-29T14:46:03;23.90;99.90
22623;DHT22;11478;51.094;7.030;2022-07-29T14:48:32;23.90;99.90
22623;DHT22;11478;51.094;7.030;2022-07-29T14:51:00;23.90;99.90
22623;DHT22;11478;51.094;7.030;2022-07-29T14:53:26;23.90;99.90
22623;DHT22;11478;51.094;7.030;2022-07-29T14:55:53;24.00;99.90
22623;DHT22;11478;51.094;7.030;2022-07-29T14:58:27;24.00;99.90
22623;DHT22;11478;51.094;7.030;2022-07-29T15:08:46;24.10;99.90
22623;DHT22;11478;51.094;7.030;2022-07-29T15:11:12;24.10;99.90
22623;DHT22;11478;51.094;7.030;2022-07-29T15:13:38;24.10;99.90
22623;DHT22;11478;51.094;7.030;2022-07-29T15:26:38;24.10;99.90
22623;DHT22;11478;51.094;7.030;2022-07-29T15:29:04;24.20;99.90
22623;DHT22;11478;51.094;7.030;2022-07-29T15:31:30;24.10;99.90
22623;DHT22;11478;51.094;7.030;2022-07-29T15:33:57;24.20;99.90
22623;DHT22;11478;51.094;7.030;2022-07-29T15:36:28;24.20;99.90
22623;DHT22;11478;51.094;7.030;2022-07-29T15:44:23;24.20;99.90
22623;DHT22;11478;51.094;7.030;2022-07-29T15:46:52;24.20;99.90
22623;DHT22;11478;51.094;7.030;2022-07-29T15:49:38;24.20;99.90
22623;DHT22;11478;51.094;7.030;2022-07-29T15:54:40;24.00;99.90
22623;DHT22;11478;51.094;7.030;2022-07-29T15:57:17;24.00;99.90
22623;DHT22;11478;51.094;7.030;2022-07-29T16:02:23;23.80;99.90
22623;DHT22;11478;51.094;7.030;2022-07-29T16:17:47;24.00;99.90
22623;DHT22;11478;51.094;7.030;2022-07-29T16:20:17;24.20;99.90
22623;DHT22;11478;51.094;7.030;2022-07-29T16:22:51;24.20;99.90
22623;DHT22;11478;51.094;7.030;2022-07-29T16:25:20;24.30;99.90
22623;DHT22;11478;51.094;7.030;2022-07-29T16:27:49;24.40;99.90
22623;DHT22;11478;51.094;7.030;2022-07-29T16:32:50;24.40;99.90
22623;DHT22;11478;51.094;7.030;2022-07-29T16:35:18;24.40;99.90
22623;DHT22;11478;51.094;7.030;2022-07-29T16:37:44;24.50;99.90
22623;DHT22;11478;51.094;7.030;2022-07-29T16:40:10;24.40;99.90
22623;DHT22;11478;51.094;7.030;2022-07-29T16:42:39;24.40;99.90
22623;DHT22;11478;51.094;7.030;2022-07-29T16:47:43;24.40;99.90
22623;DHT22;11478;51.094;7.030;2022-07-29T16:55:32;24.30;99.90
22623;DHT22;11478;51.094;7.030;2022-07-29T17:00:34;24.10;99.90
22623;DHT22;11478;51.094;7.030;2022-07-29T17:03:03;24.10;99.90
22623;DHT22;11478;51.094;7.030;2022-07-29T17:23:22;24.00;99.90
22623;DHT22;11478;51.094;7.030;2022-07-29T17:25:55;24.00;99.90
22623;DHT22;11478;51.094;7.030;2022-07-29T17:59:40;22.50;99.90
22623;DHT22;11478;51.094;7.030;2022-07-29T18:20:26;21.80;99.90
22623;DHT22;11478;51.094;7.030;2022-07-29T19:09:45;19.70;99.90
22623;DHT22;11478;51.094;7.030;2022-07-29T19:22:35;19.10;99.90
22623;DHT22;11478;51.094;7.030;2022-07-29T19:45:49;18.10;99.90
22623;DHT22;11478;51.094;7.030;2022-07-29T19:48:19;18.00;99.90
22623;DHT22;11478;51.094;7.030;2022-07-29T19:50:46;17.90;99.90
22623;DHT22;11478;51.094;7.030;2022-07-29T19:53:12;17.80;99.90
22623;DHT22;11478;51.094;7.030;2022-07-29T19:55:40;17.80;99.90
22623;DHT22;11478;51.094;7.030;2022-07-29T19:58:07;17.60;99.90
22623;DHT22;11478;51.094;7.030;2022-07-29T20:00:33;17.60;99.90
22623;DHT22;11478;51.094;7.030;2022-07-29T20:03:03;17.50;99.90
22623;DHT22;11478;51.094;7.030;2022-07-29T20:05:32;17.40;99.90
22623;DHT22;11478;51.094;7.030;2022-07-29T20:07:59;17.30;99.90
22623;DHT22;11478;51.094;7.030;2022-07-29T20:10:27;17.20;99.90
22623;DHT22;11478;51.094;7.030;2022-07-29T20:12:54;17.10;99.90
22623;DHT22;11478;51.094;7.030;2022-07-29T20:15:22;17.10;99.90
22623;DHT22;11478;51.094;7.030;2022-07-29T20:17:50;17.00;99.90
22623;DHT22;11478;51.094;7.030;2022-07-29T20:20:18;17.00;99.90
22623;DHT22;11478;51.094;7.030;2022-07-29T20:31:15;16.60;99.90
22623;DHT22;11478;51.094;7.030;2022-07-29T20:33:43;16.60;99.90
22623;DHT22;11478;51.094;7.030;2022-07-29T20:36:09;16.60;99.90
22623;DHT22;11478;51.094;7.030;2022-07-29T20:38:40;16.60;99.90
22623;DHT22;11478;51.094;7.030;2022-07-29T20:41:06;16.60;99.90
22623;DHT22;11478;51.094;7.030;2022-07-29T20:43:33;16.50;99.90
22623;DHT22;11478;51.094;7.030;2022-07-29T20:45:59;16.50;99.90
22623;DHT22;11478;51.094;7.030;2022-07-29T20:48:26;16.50;99.90
22623;DHT22;11478;51.094;7.030;2022-07-29T20:50:51;16.50;99.90
22623;DHT22;11478;51.094;7.030;2022-07-29T20:53:19;16.50;99.90
22623;DHT22;11478;51.094;7.030;2022-07-29T20:55:48;16.40;99.90
22623;DHT22;11478;51.094;7.030;2022-07-29T20:58:14;16.40;99.90
22623;DHT22;11478;51.094;7.030;2022-07-29T21:00:42;16.40;99.90
22623;DHT22;11478;51.094;7.030;2022-07-29T21:05:43;16.30;99.90
22623;DHT22;11478;51.094;7.030;2022-07-29T21:08:17;16.30;99.90
22623;DHT22;11478;51.094;7.030;2022-07-29T21:10:48;16.30;99.90
22623;DHT22;11478;51.094;7.030;2022-07-29T21:13:15;16.30;99.90
22623;DHT22;11478;51.094;7.030;2022-07-29T21:15:41;16.30;99.90
22623;DHT22;11478;51.094;7.030;2022-07-29T21:18:10;16.30;99.90
22623;DHT22;11478;51.094;7.030;2022-07-29T21:20:59;16.40;99.90
22623;DHT22;11478;51.094;7.030;2022-07-29T21:23:26;16.40;99.90
22623;DHT22;11478;51.094;7.030;2022-07-29T21:25:52;16.40;99.90
22623;DHT22;11478;51.094;7.030;2022-07-29T21:28:21;16.40;99.90
22623;DHT22;11478;51.094;7.030;2022-07-29T21:31:14;16.40;99.90
22623;DHT22;11478;51.094;7.030;2022-07-29T21:33:44;16.40;99.90
22623;DHT22;11478;51.094;7.030;2022-07-29T21:36:11;16.40;99.90
22623;DHT22;11478;51.094;7.030;2022-07-29T21:38:43;16.40;99.90
22623;DHT22;11478;51.094;7.030;2022-07-29T21:41:09;16.40;99.90
22623;DHT22;11478;51.094;7.030;2022-07-29T21:43:37;16.30;99.90
22623;DHT22;11478;51.094;7.030;2022-07-29T21:46:03;16.30;99.90
22623;DHT22;11478;51.094;7.030;2022-07-29T21:48:31;16.30;99.90
22623;DHT22;11478;51.094;7.030;2022-07-29T21:50:57;16.30;99.90
22623;DHT22;11478;51.094;7.030;2022-07-29T21:53:26;16.30;99.90
22623;DHT22;11478;51.094;7.030;2022-07-29T21:56:00;16.40;99.90
22623;DHT22;11478;51.094;7.030;2022-07-29T21:58:28;16.40;99.90
22623;DHT22;11478;51.094;7.030;2022-07-29T22:00:56;16.30;99.90
22623;DHT22;11478;51.094;7.030;2022-07-29T22:03:21;16.40;99.90
22623;DHT22;11478;51.094;7.030;2022-07-29T22:05:47;16.40;99.90
22623;DHT22;11478;51.094;7.030;2022-07-29T22:08:13;16.40;99.90
22623;DHT22;11478;51.094;7.030;2022-07-29T22:10:39;16.40;99.90
22623;DHT22;11478;51.094;7.030;2022-07-29T22:13:07;16.50;99.90
22623;DHT22;11478;51.094;7.030;2022-07-29T22:15:33;16.40;99.90
22623;DHT22;11478;51.094;7.030;2022-07-29T22:18:05;16.40;99.90
22623;DHT22;11478;51.094;7.030;2022-07-29T22:20:30;16.40;99.90
22623;DHT22;11478;51.094;7.030;2022-07-29T22:28:31;16.40;99.90
22623;DHT22;11478;51.094;7.030;2022-07-29T22:30:59;16.40;99.90
22623;DHT22;11478;51.094;7.030;2022-07-29T22:33:24;16.40;99.90
22623;DHT22;11478;51.094;7.030;2022-07-29T22:35:51;16.50;99.90
22623;DHT22;11478;51.094;7.030;2022-07-29T22:38:17;16.50;99.90
22623;DHT22;11478;51.094;7.030;2022-07-29T22:40:43;16.40;99.90
22623;DHT22;11478;51.094;7.030;2022-07-29T22:43:09;16.50;99.90
22623;DHT22;11478;51.094;7.030;2022-07-29T22:45:35;16.50;99.90
22623;DHT22;11478;51.094;7.030;2022-07-29T22:48:01;16.50;99.90
22623;DHT22;11478;51.094;7.030;2022-07-29T22:50:28;16.50;99.90
22623;DHT22;11478;51.094;7.030;2022-07-29T22:52:54;16.50;99.90
22623;DHT22;11478;51.094;7.030;2022-07-29T22:55:20;16.50;99.90
22623;DHT22;11478;51.094;7.030;2022-07-29T22:57:49;16.50;99.90
22623;DHT22;11478;51.094;7.030;2022-07-29T23:00:15;16.40;99.90
22623;DHT22;11478;51.094;7.030;2022-07-29T23:02:41;16.30;99.90
22623;DHT22;11478;51.094;7.030;2022-07-29T23:05:09;16.30;99.90
22623;DHT22;11478;51.094;7.030;2022-07-29T23:07:35;16.20;99.90
22623;DHT22;11478;51.094;7.030;2022-07-29T23:10:03;16.20;99.90
22623;DHT22;11478;51.094;7.030;2022-07-29T23:12:29;16.20;99.90
22623;DHT22;11478;51.094;7.030;2022-07-29T23:20:07;16.00;99.90
22623;DHT22;11478;51.094;7.030;2022-07-29T23:22:34;15.90;99.90
22623;DHT22;11478;51.094;7.030;2022-07-29T23:25:00;15.80;99.90
22623;DHT22;11478;51.094;7.030;2022-07-29T23:27:26;15.80;99.90
22623;DHT22;11478;51.094;7.030;2022-07-29T23:30:00;15.70;99.90
22623;DHT22;11478;51.094;7.030;2022-07-29T23:32:26;15.70;99.90
22623;DHT22;11478;51.094;7.030;2022-07-29T23:34:52;15.60;99.90
22623;DHT22;11478;51.094;7.030;2022-07-29T23:37:19;15.50;99.90
22623;DHT22;11478;51.094;7.030;2022-07-29T23:39:45;15.40;99.90
22623;DHT22;11478;51.094;7.030;2022-07-29T23:42:11;15.40;99.90
22623;DHT22;11478;51.094;7.030;2022-07-29T23:44:37;15.30;99.90
22623;DHT22;11478;51.094;7.030;2022-07-29T23:47:07;15.30;99.90
22623;DHT22;11478;51.094;7.030;2022-07-29T23:49:33;15.30;99.90
22623;DHT22;11478;51.094;7.030;2022-07-29T23:51:59;15.20;99.90
22623;DHT22;11478;51.094;7.030;2022-07-29T23:54:25;15.20;99.90
22623;DHT22;11478;51.094;7.030;2022-07-29T23:56:51;15.10;99.90
22623;DHT22;11478;51.094;7.030;2022-07-29T23:59:16;15.10;99.90
